• Join FlightAware (Why Join?)
  • Login
  • US Flag 
06:58AM EST


 

Airport Tracker/Info


-or-


 

Live Flight TrackerFlight Track Log ✈ FLG4262 ✈ 18-Sep-2013 ✈ KBGM - KDTW

Flight Track Log - Related Links

Times and Time Zones

All times are in EDT time to prevent confusion due to time zone crossing. See the FLG4262 flight status page for this flight to view local times or setup timezone preferences in your user account.

Time Position Orientation Groundspeed Altitude Reporting Facility
EDT Latitude Longitude Course Direction KTS MPH feet Rate Location/Type
05:17PM 42.1508 -76.1161 267° West 209 241 4,000  Level New York Center
05:18PM 42.1800 -76.2053 294° West 224 258 5,400 1,920 Climbing New York Center
05:19PM 42.2244 -76.5046 294° West  Level Estimated
05:20PM 42.2273 -76.6097 294° West  Level Estimated
05:20PM 42.2486 -76.4139 294° West 273 314 10,200  Level Cleveland Center
05:21PM 42.2301 -76.7147 289° West  Level Estimated
05:21PM 42.2806 -76.5178 293° West 292 336 11,700  Level Cleveland Center
05:22PM 42.3172 -76.6361 293° West 332 382 13,100 1,200 Climbing Cleveland Center
05:23PM 42.3578 -76.7617 294° West 354 407 14,300 1,080 Climbing Cleveland Center
05:25PM 42.3997 -76.8944 293° West 375 432 15,400 1,140 Climbing Cleveland Center
05:26PM 42.4503 -77.0567 293° West 388 447 16,700 1,140 Climbing Cleveland Center
05:27PM 42.4933 -77.1942 293° West 394 453 17,800 960 Climbing Cleveland Center
05:28PM 42.5361 -77.3331 293° West 399 459 18,700 960 Climbing Cleveland Center
05:29PM 42.5814 -77.4808 293° West 399 459 19,800 1,020 Climbing Cleveland Center
05:30PM 42.6014 -77.6258 281° West 400 460 20,900 1,020 Climbing Cleveland Center
05:31PM 42.6103 -77.7758 275° West 398 458 22,000 1,080 Climbing Cleveland Center
05:32PM 42.6169 -77.9228 274° West 392 451 23,200 960 Climbing Cleveland Center
05:33PM 42.6228 -78.0692 273° West 390 449 24,000 360 Climbing Cleveland Center
05:34PM 42.6303 -78.2542 273° West 407 468 24,000  Level Cleveland Center
05:35PM 42.6369 -78.4142 273° West 424 488 24,000  Level Cleveland Center
05:36PM 42.6442 -78.5800 273° West 441 507 24,000  Level Cleveland Center
05:37PM 42.6503 -78.7467 273° West 441 507 24,000  Level Cleveland Center
05:38PM 42.6567 -78.9142 273° West 445 512 24,000  Level Cleveland Center
05:39PM 42.6619 -79.0825 272° West 447 514 24,000  Level Cleveland Center
05:40PM 42.6686 -79.2828 273° West 444 511 24,000  Level Cleveland Center
05:41PM 42.6742 -79.4503 273° West 445 512 24,000  Level Cleveland Center
05:42PM 42.6789 -79.6186 272° West 446 513 24,000  Level Cleveland Center
05:43PM 42.6825 -79.7856 272° West 444 511 24,000  Level Cleveland Center
05:44PM 42.6867 -79.9544 272° West 448 516 24,000  Level Cleveland Center
05:45PM 42.6897 -80.1303 271° West 445 512 24,000  Level Cleveland Center
05:46PM 42.6931 -80.3019 272° West 449 517 24,000  Level Cleveland Center
05:47PM 42.6969 -80.4725 272° West 449 517 24,000  Level Cleveland Center
05:48PM 42.7019 -80.6719 272° West 449 517 24,000  Level Cleveland Center
05:49PM 42.7050 -80.8475 271° West 459 528 24,000  Level Cleveland Center
05:50PM 42.6908 -81.0178 264° West 451 519 24,000  Level Cleveland Center
05:51PM 42.6717 -81.1872 261° West 451 519 24,000  Level Cleveland Center
05:52PM 42.6525 -81.3547 261° West 448 516 24,000 -300 Level Cleveland Center
05:53PM 42.6325 -81.5239 261° West 450 518 23,400 -1,440 Descending Cleveland Center
05:55PM 42.6097 -81.7228 261° West 454 522 21,100 -2,040 Descending Cleveland Center
05:56PM 42.5903 -81.8822 261° West 434 499 19,200 -1,800 Descending Cleveland Center
05:57PM 42.5714 -82.0397 261° West 426 490 17,500 -1,860 Descending Cleveland Center
05:57PM 42.5544 -82.1733 260° West 422 486 15,900 -1,980 Descending Cleveland Center
05:58PM 42.5519 -82.1958 261° West 423 487 15,500 -1,560 Descending Cleveland Center
05:59PM 42.5333 -82.3447 260° West 410 472 13,900 -1,740 Descending Cleveland Center
05:59PM 42.5283 -82.4019 263° West 395 455 13,300 -1,680 Descending Cleveland Center
06:00PM 42.5142 -82.4894 258° West 397 457 12,200 -1,080 Descending Cleveland Center
06:00PM 42.5006 -82.5625 256° West 383 441 12,100 -300 Descending Cleveland Center
06:01PM 42.4700 -82.6467 244° Southwest 378 435 11,900 -360 Descending Cleveland Center
06:01PM 42.4633 -82.6708 250° West 372 428 11,800 -1,800 Descending Cleveland Center
06:02PM 42.4300 -82.7617 244° Southwest 351 404 10,100 -1,860 Descending Cleveland Center
06:02PM 42.4267 -82.7736 249° West 315 362 10,100 -1,860 Level Cleveland Center
06:03PM 42.3900 -82.8731 243° Southwest 274 315 8,100 -1,680 Descending Cleveland Center
06:04PM 42.3883 -82.9542 268° West 270 311 6,800 -1,260 Descending Cleveland Center
06:04PM 42.3892 -82.9719 274° West 250 288 6,800 -900 Level Cleveland Center
06:05PM 42.3897 -83.0428 271° West 243 280 5,900 -1,080 Descending Cleveland Center
06:05PM 42.3922 -83.0711 277° West 219 252 5,600 -780 Descending Cleveland Center
06:06PM 42.3739 -83.1450 251° West 225 259 5,100 -600 Descending Cleveland Center
06:07PM 42.3567 -83.2139 251° West 216 249 4,500 -660 Descending Cleveland Center
06:07PM 42.3553 -83.2244 260° West 183 211 4,400 -1,380 Descending Cleveland Center
06:08PM 42.3228 -83.2553 215° Southwest 192 221 3,100 -1,380 Descending Cleveland Center
06:08PM 42.3147 -83.2611 208° Southwest 173 199 3,000 -1,020 Descending Cleveland Center
06:09PM 42.2703 -83.2972 211° Southwest 162 186 1,900 -900 Descending Cleveland Center
06:10PM 42.2389 -83.3211 209° Southwest 143 165 1,200 -480 Descending Cleveland Center
06:11PM 42.2103 -83.3383 204° Southwest 156 180 1,100 -120 Descending Cleveland Center